Terminal Aerodrome Forecast
Issued by NWS

Home | Current Version | Previous Version | Text Only | Print | Product List | Glossary On
Versions: 1 2 3 4 5 6 7 8 9 10 11 12 13 14 15 16
000
FTUS45 KABQ 300757 AAA
TAFLVS
TAF AMD
KLVS 300757Z 3008/3106 03010KT P6SM VCSH SCT015 BKN025 OVC050
     FM300900 06010KT 5SM SHRA BR BKN009
     FM301500 12010KT P6SM VCSH BKN019
     FM301800 19011G18KT P6SM BKN040
     FM310000 16010KT P6SM VCSH SCT050 BKN120=

USA.gov is the U.S. government's official web portal to all federal, state and local government web resources and services.